createdAt,value
2023-08-17T00:00:35.060Z,75946.88
2023-08-17T00:03:07.759Z,75956.97
2023-08-17T00:05:41.176Z,75961.00
2023-08-17T00:08:13.866Z,75971.09
2023-08-17T00:10:48.965Z,75948.88
2023-08-17T00:13:21.540Z,75989.25
2023-08-17T00:15:54.036Z,75983.19
2023-08-17T00:18:26.693Z,75973.09
2023-08-17T00:20:59.307Z,75973.09
2023-08-17T00:23:31.951Z,75983.19
2023-08-17T00:26:04.606Z,75975.13
2023-08-17T00:28:37.179Z,75983.19
2023-08-17T00:31:09.680Z,76005.41
2023-08-17T00:33:42.211Z,75989.25
2023-08-17T00:36:14.873Z,76009.44
2023-08-17T00:38:47.419Z,75991.28
2023-08-17T00:41:20.032Z,76017.50
2023-08-17T00:43:52.688Z,76003.38
2023-08-17T00:46:25.907Z,76033.66
2023-08-17T00:48:59.476Z,76025.59
2023-08-17T00:51:32.713Z,76045.78
2023-08-17T00:54:05.611Z,76017.50
2023-08-17T00:56:38.521Z,76045.78
2023-08-17T00:59:11.626Z,76041.75
2023-08-17T01:01:44.246Z,76019.53
2023-08-17T01:04:17.273Z,76031.66
2023-08-17T01:06:50.686Z,76039.72
2023-08-17T01:09:23.265Z,76019.53
2023-08-17T01:12:15.158Z,76015.50
2023-08-17T01:14:50.625Z,76043.75
2023-08-17T01:17:26.216Z,76049.81
2023-08-17T01:20:00.235Z,76003.38
2023-08-17T01:22:37.176Z,76019.53
2023-08-17T01:25:10.215Z,76027.59
2023-08-17T01:27:46.334Z,76039.72
2023-08-17T01:30:20.061Z,76057.88
2023-08-17T01:33:02.427Z,76027.59
2023-08-17T01:35:39.974Z,76072.00
2023-08-17T01:38:24.468Z,76053.84
2023-08-17T01:40:58.691Z,76039.72
2023-08-17T01:43:31.662Z,76053.84
2023-08-17T01:46:04.161Z,76035.69
2023-08-17T01:48:37.097Z,76039.72
2023-08-17T01:51:11.021Z,76033.66
2023-08-17T01:53:43.581Z,76053.84
2023-08-17T01:56:16.224Z,76057.88
2023-08-17T01:58:48.847Z,76037.69
2023-08-17T02:01:21.429Z,76076.06
2023-08-17T02:03:54.008Z,76045.78
2023-08-17T02:06:26.442Z,76055.88
2023-08-17T02:08:59.763Z,76065.97
2023-08-17T02:11:32.235Z,76084.13
2023-08-17T02:14:04.932Z,76084.13
2023-08-17T02:16:37.397Z,76059.91
2023-08-17T02:19:09.892Z,76076.06
2023-08-17T02:21:42.517Z,76067.97
2023-08-17T02:24:15.030Z,76104.31
2023-08-17T02:26:47.573Z,76072.00
2023-08-17T02:29:20.224Z,76072.00
2023-08-17T02:31:52.865Z,76096.25
2023-08-17T02:34:25.338Z,76098.25
2023-08-17T02:36:58.027Z,76082.09
2023-08-17T02:39:30.701Z,76059.91
2023-08-17T02:42:03.378Z,76078.06
2023-08-17T02:44:36.004Z,76088.16
2023-08-17T02:47:08.599Z,76096.25
2023-08-17T02:49:41.247Z,76061.91
2023-08-17T02:52:13.748Z,76061.91
2023-08-17T02:54:46.376Z,76059.91
2023-08-17T02:57:19.595Z,76037.69
2023-08-17T02:59:52.149Z,76090.19
2023-08-17T03:02:24.856Z,76076.06
2023-08-17T03:04:57.454Z,76074.03
2023-08-17T03:07:30.158Z,76055.88
2023-08-17T03:10:02.670Z,76065.97
2023-08-17T03:12:35.212Z,76065.97
2023-08-17T03:15:08.218Z,76047.78
2023-08-17T03:17:40.703Z,76084.13
2023-08-17T03:20:13.442Z,76070.00
2023-08-17T03:22:45.996Z,76096.25
2023-08-17T03:25:19.950Z,76063.94
2023-08-17T03:27:52.498Z,76074.03
2023-08-17T03:30:25.134Z,76088.16
2023-08-17T03:32:58.323Z,76092.19
2023-08-17T03:35:30.991Z,76078.06
2023-08-17T03:38:03.635Z,76096.25
2023-08-17T03:40:37.262Z,76084.13
2023-08-17T03:43:09.689Z,76067.97
2023-08-17T03:45:42.839Z,76067.97
2023-08-17T03:48:15.380Z,76084.13
2023-08-17T03:50:48.142Z,76078.06
2023-08-17T03:53:20.934Z,76072.00
2023-08-17T03:55:53.530Z,76112.38
2023-08-17T03:58:27.918Z,76090.19
2023-08-17T04:01:00.415Z,76098.25
2023-08-17T04:03:32.986Z,76118.44
2023-08-17T04:06:11.230Z,76128.53
2023-08-17T04:08:43.800Z,76168.91
2023-08-17T04:11:16.278Z,76152.75
2023-08-17T04:13:48.758Z,76164.88
2023-08-17T04:16:21.453Z,76187.06
2023-08-17T04:18:54.016Z,76164.88
2023-08-17T04:21:26.608Z,76185.06
2023-08-17T04:23:59.171Z,76207.25
2023-08-17T04:26:31.704Z,76189.09
2023-08-17T04:29:04.794Z,76195.16
2023-08-17T04:31:37.453Z,76209.28
2023-08-17T04:34:10.017Z,76215.34
2023-08-17T04:36:42.527Z,76223.41
2023-08-17T04:39:15.064Z,76217.34
2023-08-17T04:41:48.108Z,76201.19
2023-08-17T04:44:20.560Z,76213.31
2023-08-17T04:46:53.087Z,76239.56
2023-08-17T04:49:25.579Z,76227.44
2023-08-17T04:51:58.254Z,76243.59
2023-08-17T04:54:30.805Z,76227.44
2023-08-17T04:57:04.620Z,76217.34
2023-08-17T04:59:37.602Z,76253.69
2023-08-17T05:02:10.159Z,76215.34
2023-08-17T05:04:43.104Z,76213.31
2023-08-17T05:07:15.607Z,76205.25
2023-08-17T05:09:48.032Z,76193.13
2023-08-17T05:12:20.510Z,76217.34
2023-08-17T05:14:53.462Z,76207.25
2023-08-17T05:17:26.257Z,76195.16
2023-08-17T05:19:58.912Z,76166.88
2023-08-17T05:22:31.384Z,76191.09
2023-08-17T05:25:04.413Z,76195.16
2023-08-17T05:27:36.904Z,76162.84
2023-08-17T05:30:09.646Z,76179.00
2023-08-17T05:32:42.110Z,76179.00
2023-08-17T05:35:14.865Z,76152.75
2023-08-17T05:37:47.279Z,76132.56
2023-08-17T05:40:20.116Z,76146.69
2023-08-17T05:42:52.644Z,76138.63
2023-08-17T05:45:25.257Z,76130.56
2023-08-17T05:47:57.782Z,76110.38
2023-08-17T05:50:30.600Z,76092.19
2023-08-17T05:53:03.132Z,76096.25
2023-08-17T05:55:36.033Z,76114.41
2023-08-17T05:58:08.524Z,76086.16
2023-08-17T06:00:41.152Z,76078.06
2023-08-17T06:03:13.763Z,76108.34
2023-08-17T06:05:46.268Z,76067.97
2023-08-17T06:08:18.763Z,76041.75
2023-08-17T06:10:51.294Z,76033.66
2023-08-17T06:13:23.930Z,76031.66
2023-08-17T06:15:59.064Z,76088.16
2023-08-17T06:18:32.025Z,76051.84
2023-08-17T06:21:04.674Z,76084.13
2023-08-17T06:23:37.326Z,76053.84
2023-08-17T06:26:12.025Z,76086.16
2023-08-17T06:28:44.554Z,76090.19
2023-08-17T06:31:17.629Z,76059.91
2023-08-17T06:33:50.410Z,76072.00
2023-08-17T06:36:22.992Z,76063.94
2023-08-17T06:38:55.473Z,76061.91
2023-08-17T06:41:27.996Z,76126.50
2023-08-17T06:44:00.880Z,76084.13
2023-08-17T06:46:33.297Z,76100.28
2023-08-17T06:49:05.851Z,76102.28
2023-08-17T06:51:38.366Z,76037.69
2023-08-17T06:54:10.954Z,76003.38
2023-08-17T06:56:43.512Z,75942.84
2023-08-17T06:59:16.192Z,75950.91
2023-08-17T07:01:48.752Z,75916.59
2023-08-17T07:04:21.303Z,75926.69
2023-08-17T07:06:53.887Z,75938.78
2023-08-17T07:09:26.606Z,75940.81
2023-08-17T07:11:59.180Z,75926.69
2023-08-17T07:14:31.842Z,75948.88
2023-08-17T07:17:04.324Z,75926.69
2023-08-17T07:20:03.943Z,75944.84
2023-08-17T07:22:29.341Z,75942.84
2023-08-17T07:25:01.962Z,75874.22
2023-08-17T07:27:34.420Z,75938.78
2023-08-17T07:30:08.257Z,75926.69
2023-08-17T07:32:41.127Z,75896.41
2023-08-17T07:35:13.872Z,75918.63
2023-08-17T07:37:55.951Z,75876.22
2023-08-17T07:40:36.938Z,75924.66
2023-08-17T07:43:09.433Z,75900.44
2023-08-17T07:45:42.021Z,75854.03
2023-08-17T07:48:14.525Z,75839.91
2023-08-17T07:50:53.873Z,75854.03
2023-08-17T07:53:26.613Z,75880.25
2023-08-17T07:55:59.105Z,75847.97
2023-08-17T07:58:31.541Z,75874.22
2023-08-17T08:01:04.502Z,75833.84
2023-08-17T08:03:37.954Z,75817.69
2023-08-17T08:06:10.453Z,75791.44
2023-08-17T08:08:42.917Z,75773.28
2023-08-17T08:11:15.753Z,75827.78
2023-08-17T08:13:48.170Z,75771.28
2023-08-17T08:16:20.744Z,75797.50
2023-08-17T08:18:54.120Z,75741.00
2023-08-17T08:21:28.755Z,75728.88
2023-08-17T08:24:01.228Z,75767.22
2023-08-17T08:26:33.700Z,75801.53
2023-08-17T08:29:06.357Z,75781.34
2023-08-17T08:31:38.921Z,75771.28
2023-08-17T08:34:11.365Z,75761.19
2023-08-17T08:36:43.830Z,75714.75
2023-08-17T08:39:16.327Z,75757.13
2023-08-17T08:41:48.815Z,75767.22
2023-08-17T08:44:21.433Z,75807.59
2023-08-17T08:46:56.943Z,75805.59
2023-08-17T08:49:30.185Z,75890.34
2023-08-17T08:52:05.140Z,75868.16
2023-08-17T08:54:40.598Z,75801.53
2023-08-17T08:57:17.509Z,75870.16
2023-08-17T08:59:50.606Z,75858.06
2023-08-17T09:02:23.141Z,75793.47
2023-08-17T09:04:55.767Z,75809.63
2023-08-17T09:07:30.651Z,75809.63
2023-08-17T09:10:04.527Z,75821.72
2023-08-17T09:12:40.975Z,75809.63
2023-08-17T09:15:14.394Z,75793.47
2023-08-17T09:17:48.897Z,75801.53
2023-08-17T09:20:47.749Z,75795.50
2023-08-17T09:23:23.100Z,75815.69
2023-08-17T09:28:40.069Z,75801.53
2023-08-17T09:31:12.851Z,75843.94
2023-08-17T09:33:50.469Z,75813.66
2023-08-17T09:36:23.993Z,75833.84
2023-08-17T09:38:58.269Z,75825.75
2023-08-17T09:41:30.893Z,75821.72
2023-08-17T09:44:03.997Z,75749.06
2023-08-17T09:46:36.467Z,75749.06
2023-08-17T09:49:10.339Z,75767.22
2023-08-17T09:51:45.926Z,75789.44
2023-08-17T09:54:24.157Z,75835.84
2023-08-17T09:56:58.152Z,75847.97
2023-08-17T09:59:30.623Z,75870.16
2023-08-17T10:02:05.009Z,75845.94
2023-08-17T10:04:38.892Z,75815.69
2023-08-17T10:07:13.453Z,75854.03
2023-08-17T10:09:50.836Z,75849.97
2023-08-17T10:12:28.139Z,75847.97
2023-08-17T10:15:04.784Z,75803.56
2023-08-17T10:18:15.573Z,75753.09
2023-08-17T10:21:02.990Z,75741.00
2023-08-17T10:23:36.519Z,75797.50
2023-08-17T10:26:09.916Z,75708.69
2023-08-17T10:28:42.891Z,75720.81
2023-08-17T10:31:15.567Z,75745.03
2023-08-17T10:33:49.553Z,75771.28
2023-08-17T10:36:23.076Z,75741.00
2023-08-17T10:39:29.428Z,75712.75
2023-08-17T10:42:02.531Z,75712.75
2023-08-17T10:44:49.195Z,75696.59
2023-08-17T10:47:35.052Z,75710.72
2023-08-17T10:50:23.018Z,75724.84
2023-08-17T10:52:55.549Z,75718.78
2023-08-17T10:55:40.342Z,75674.38
2023-08-17T10:58:16.135Z,75712.75
2023-08-17T11:00:55.807Z,75724.84
2023-08-17T11:03:30.397Z,75732.91
2023-08-17T11:06:18.514Z,75694.56
2023-08-17T11:08:59.317Z,75730.91
2023-08-17T11:11:32.199Z,75696.59
2023-08-17T11:14:04.810Z,75732.91
2023-08-17T11:16:37.396Z,75730.91
2023-08-17T11:19:13.582Z,75716.78
2023-08-17T11:21:46.430Z,75674.38
2023-08-17T11:24:19.186Z,75646.13
2023-08-17T11:26:51.866Z,75668.34
2023-08-17T11:29:24.735Z,75686.50
2023-08-17T11:31:57.413Z,75680.44
2023-08-17T11:34:30.548Z,75638.06
2023-08-17T11:37:05.188Z,75672.38
2023-08-17T11:39:37.933Z,75615.84
2023-08-17T11:42:10.492Z,75664.28
2023-08-17T11:44:42.989Z,75700.63
2023-08-17T11:47:15.652Z,75690.53
2023-08-17T11:49:51.241Z,75672.38
2023-08-17T11:52:27.910Z,75646.13
2023-08-17T11:55:01.159Z,75603.75
2023-08-17T11:57:34.300Z,75553.28
2023-08-17T12:00:11.097Z,75529.06
2023-08-17T12:02:46.373Z,75537.16
2023-08-17T12:05:24.400Z,75571.47
2023-08-17T12:07:57.025Z,75555.31
2023-08-17T12:10:32.770Z,75579.53
2023-08-17T12:13:05.473Z,75595.69
2023-08-17T12:15:39.271Z,75571.47
2023-08-17T12:18:11.846Z,75575.50
2023-08-17T12:20:45.809Z,75567.41
2023-08-17T12:23:19.237Z,75573.47
2023-08-17T12:25:58.442Z,75563.38
2023-08-17T12:28:30.870Z,75583.56
2023-08-17T12:31:05.291Z,75575.50
2023-08-17T12:33:37.855Z,75567.41
2023-08-17T12:36:10.351Z,75575.50
2023-08-17T12:38:46.046Z,75591.63
2023-08-17T12:41:18.813Z,75595.69
2023-08-17T12:43:51.464Z,75535.13
2023-08-17T12:46:23.985Z,75521.00
2023-08-17T12:48:56.463Z,75512.94
2023-08-17T12:51:28.943Z,75480.63
2023-08-17T12:54:01.443Z,75450.38
2023-08-17T12:56:33.885Z,75450.38
2023-08-17T12:59:06.325Z,75428.16
2023-08-17T13:01:39.584Z,75444.31
2023-08-17T13:04:12.040Z,75422.09
2023-08-17T13:06:49.872Z,75397.88
2023-08-17T13:09:22.698Z,75395.88
2023-08-17T13:11:55.133Z,75446.31
2023-08-17T13:14:27.675Z,75462.47
2023-08-17T13:17:00.209Z,75428.16
2023-08-17T13:19:32.625Z,75456.41
2023-08-17T13:22:05.137Z,75474.59
2023-08-17T13:24:37.629Z,75486.69
2023-08-17T13:27:10.064Z,75496.78
2023-08-17T13:29:42.558Z,75466.50
2023-08-17T13:32:14.956Z,75464.50
2023-08-17T13:34:47.423Z,75434.22
2023-08-17T13:37:20.530Z,75428.16
2023-08-17T13:39:53.045Z,75446.31
2023-08-17T13:42:25.687Z,75452.38
2023-08-17T13:44:58.461Z,75462.47
2023-08-17T13:47:31.043Z,75450.38
2023-08-17T13:50:04.406Z,75432.19
2023-08-17T13:52:37.079Z,75412.00
2023-08-17T13:55:09.815Z,75436.22
2023-08-17T13:57:42.287Z,75395.88
2023-08-17T14:00:14.982Z,75373.66
2023-08-17T14:02:48.584Z,75403.94
2023-08-17T14:05:21.426Z,75377.72
2023-08-17T14:07:53.923Z,75410.00
2023-08-17T14:10:38.462Z,75480.63
2023-08-17T14:13:12.050Z,75456.41
2023-08-17T14:15:44.471Z,75460.44
2023-08-17T14:18:17.004Z,75446.31
2023-08-17T14:20:49.511Z,75482.66
2023-08-17T14:23:21.992Z,75480.63
2023-08-17T14:25:54.442Z,75436.22
2023-08-17T14:28:27.607Z,75434.22
2023-08-17T14:31:00.085Z,75474.59
2023-08-17T14:33:32.488Z,75510.91
2023-08-17T14:36:05.105Z,75498.81
2023-08-17T14:38:37.555Z,75525.03
2023-08-17T14:41:10.451Z,75496.78
2023-08-17T14:43:42.921Z,75472.56
2023-08-17T14:46:15.874Z,75514.94
2023-08-17T14:48:48.473Z,75527.06
2023-08-17T14:51:20.906Z,75523.03
2023-08-17T14:53:53.857Z,75494.75
2023-08-17T14:56:26.318Z,75486.69
2023-08-17T14:58:58.832Z,75541.19
2023-08-17T15:01:31.820Z,75533.09
2023-08-17T15:04:04.493Z,75512.94
2023-08-17T15:09:14.311Z,75474.59
2023-08-17T15:11:46.960Z,75549.25
2023-08-17T15:14:19.522Z,75527.06
2023-08-17T15:16:52.279Z,75508.88
2023-08-17T15:19:38.264Z,75525.03
2023-08-17T15:24:47.979Z,75498.81
2023-08-17T15:27:21.008Z,75527.06
2023-08-17T15:29:53.505Z,75527.06
2023-08-17T15:32:26.317Z,75521.00
2023-08-17T15:34:58.894Z,75575.50
2023-08-17T15:37:31.660Z,75553.28
2023-08-17T15:40:04.654Z,75555.31
2023-08-17T15:42:37.067Z,75551.28
2023-08-17T15:45:09.809Z,75547.25
2023-08-17T15:47:42.289Z,75569.44
2023-08-17T15:50:15.067Z,75541.19
2023-08-17T15:52:47.467Z,75551.28
2023-08-17T15:55:19.878Z,75527.06
2023-08-17T15:57:53.812Z,75553.28
2023-08-17T16:00:26.422Z,75523.03
2023-08-17T16:02:58.995Z,75543.19
2023-08-17T16:05:31.771Z,75553.28
2023-08-17T16:08:04.471Z,75579.53
2023-08-17T16:10:37.808Z,75577.50
2023-08-17T16:13:10.326Z,75609.81
2023-08-17T16:15:42.818Z,75625.94
2023-08-17T16:18:15.416Z,75595.69
2023-08-17T16:20:47.888Z,75595.69
2023-08-17T16:23:23.073Z,75569.44
2023-08-17T16:25:55.633Z,75579.53
2023-08-17T16:28:28.088Z,75617.88
2023-08-17T16:31:04.480Z,75603.75
2023-08-17T16:33:37.618Z,75587.59
2023-08-17T16:36:10.205Z,75571.47
2023-08-17T16:38:42.762Z,75595.69
2023-08-17T16:41:15.231Z,75613.84
2023-08-17T16:43:47.943Z,75621.91
2023-08-17T16:46:20.420Z,75599.72
2023-08-17T16:48:52.927Z,75565.41
2023-08-17T16:51:25.385Z,75559.34
2023-08-17T16:53:58.976Z,75585.59
2023-08-17T16:56:31.426Z,75559.34
2023-08-17T16:59:03.984Z,75555.31
2023-08-17T17:01:36.447Z,75593.66
2023-08-17T17:04:09.076Z,75551.28
2023-08-17T17:06:42.452Z,75541.19
2023-08-17T17:09:15.036Z,75563.38
2023-08-17T17:11:47.715Z,75595.69
2023-08-17T17:14:20.250Z,75569.44
2023-08-17T17:16:52.731Z,75593.66
2023-08-17T17:19:25.289Z,75585.59
2023-08-17T17:21:57.677Z,75587.59
2023-08-17T17:24:32.174Z,75599.72
2023-08-17T17:27:04.635Z,75575.50
2023-08-17T17:29:37.128Z,75619.91
2023-08-17T17:32:09.648Z,75615.84
2023-08-17T17:34:42.162Z,75627.97
2023-08-17T17:37:14.616Z,75640.06
2023-08-17T17:39:47.056Z,75599.72
2023-08-17T17:42:19.551Z,75638.06
2023-08-17T17:44:52.039Z,75609.81
2023-08-17T17:47:24.487Z,75650.16
2023-08-17T17:49:56.943Z,75625.94
2023-08-17T17:52:30.551Z,75611.81
2023-08-17T17:55:03.681Z,75640.06
2023-08-17T17:57:36.286Z,75632.00
2023-08-17T18:00:11.199Z,75632.00
2023-08-17T18:02:43.750Z,75632.00
2023-08-17T18:05:16.185Z,75678.44
2023-08-17T18:07:48.591Z,75664.28
2023-08-17T18:10:21.101Z,75684.47
2023-08-17T18:12:53.590Z,75692.56
2023-08-17T18:15:26.045Z,75660.25
2023-08-17T18:17:58.748Z,75668.34
2023-08-17T18:20:31.701Z,75700.63
2023-08-17T18:23:04.320Z,75704.66
2023-08-17T18:25:36.757Z,75708.69
2023-08-17T18:28:09.214Z,75714.75
2023-08-17T18:30:41.867Z,75720.81
2023-08-17T18:33:14.892Z,75728.88
2023-08-17T18:35:47.379Z,75712.75
2023-08-17T18:38:20.286Z,75730.91
2023-08-17T18:40:54.341Z,75732.91
2023-08-17T18:43:27.174Z,75745.03
2023-08-17T18:45:59.693Z,75751.09
2023-08-17T18:48:32.673Z,75736.97
2023-08-17T18:51:05.220Z,75743.00
2023-08-17T18:53:38.198Z,75783.38
2023-08-17T18:56:10.772Z,75769.25
2023-08-17T18:58:43.487Z,75773.28
2023-08-17T19:01:16.072Z,75779.34
2023-08-17T19:03:49.171Z,75789.44
2023-08-17T19:06:24.774Z,75819.72
2023-08-17T19:08:57.424Z,75805.59
2023-08-17T19:11:30.341Z,75793.47
2023-08-17T19:14:04.544Z,75823.75
2023-08-17T19:16:37.196Z,75819.72
2023-08-17T19:19:10.953Z,75827.78
2023-08-17T19:21:43.666Z,75817.69
2023-08-17T19:24:16.369Z,75801.53
2023-08-17T19:26:48.937Z,75807.59
2023-08-17T19:29:21.629Z,75817.69
2023-08-17T19:31:54.366Z,75803.56
2023-08-17T19:34:27.121Z,75805.59
2023-08-17T19:36:59.881Z,75805.59
2023-08-17T19:39:32.513Z,75813.66
2023-08-17T19:42:05.405Z,75817.69
2023-08-17T19:44:38.045Z,75813.66
2023-08-17T19:47:10.717Z,75821.72
2023-08-17T19:49:43.259Z,75817.69
2023-08-17T19:52:16.096Z,75811.63
2023-08-17T19:54:52.880Z,75854.03
2023-08-17T19:57:26.706Z,75862.09
2023-08-17T19:59:59.441Z,75849.97
2023-08-17T20:02:32.047Z,75854.03
2023-08-17T20:05:05.958Z,75856.03
2023-08-17T20:07:39.425Z,75839.91
2023-08-17T20:10:12.578Z,75835.84
2023-08-17T20:12:45.288Z,75829.81
2023-08-17T20:15:17.994Z,75839.91
2023-08-17T20:17:50.715Z,75833.84
2023-08-17T20:20:23.437Z,75825.75
2023-08-17T20:22:56.041Z,75829.81
2023-08-17T20:25:28.458Z,75845.94
2023-08-17T20:28:02.209Z,75833.84
2023-08-17T20:30:34.800Z,75854.03
2023-08-17T20:33:07.550Z,75864.13
2023-08-17T20:35:41.305Z,75833.84
2023-08-17T20:38:13.937Z,75860.06
2023-08-17T20:40:46.556Z,75829.81
2023-08-17T20:43:19.293Z,75843.94
2023-08-17T20:45:51.955Z,75829.81
2023-08-17T20:48:24.394Z,75860.06
2023-08-17T20:50:58.059Z,75866.13
2023-08-17T20:53:30.552Z,75843.94
2023-08-17T20:56:04.078Z,75845.94
2023-08-17T20:58:36.770Z,75837.88
2023-08-17T21:01:09.392Z,75847.97
2023-08-17T21:03:41.981Z,75837.88
2023-08-17T21:06:14.843Z,75847.97
2023-08-17T21:08:47.321Z,75831.81
2023-08-17T21:11:20.242Z,75845.94
2023-08-17T21:13:52.848Z,75829.81
2023-08-17T21:16:25.276Z,75849.97
2023-08-17T21:19:00.586Z,75845.94
2023-08-17T21:21:33.101Z,75868.16
2023-08-17T21:24:05.944Z,75858.06
2023-08-17T21:26:38.390Z,75852.00
2023-08-17T21:29:11.096Z,75886.31
2023-08-17T21:31:43.670Z,75852.00
2023-08-17T21:34:19.118Z,75837.88
2023-08-17T21:36:51.518Z,75837.88
2023-08-17T21:39:24.022Z,75825.75
2023-08-17T21:41:56.526Z,75858.06
2023-08-17T21:44:31.971Z,75835.84
2023-08-17T21:47:04.325Z,75837.88
2023-08-17T21:49:36.891Z,75835.84
2023-08-17T21:52:09.572Z,75843.94
2023-08-17T21:54:42.589Z,75829.81
2023-08-17T21:57:15.046Z,75827.78
2023-08-17T21:59:47.573Z,75827.78
2023-08-17T22:02:20.048Z,75825.75
2023-08-17T22:04:52.537Z,75827.78
2023-08-17T22:07:25.050Z,75817.69
2023-08-17T22:09:57.653Z,75825.75
2023-08-17T22:12:30.085Z,75819.72
2023-08-17T22:15:02.632Z,75817.69
2023-08-17T22:17:35.284Z,75827.78
2023-08-17T22:20:09.555Z,75825.75
2023-08-17T22:22:42.258Z,75825.75
2023-08-17T22:25:14.996Z,75847.97
2023-08-17T22:27:47.535Z,75854.03
2023-08-17T22:30:20.049Z,75829.81
2023-08-17T22:32:52.777Z,75829.81
2023-08-17T22:35:25.505Z,75813.66
2023-08-17T22:37:57.927Z,75833.84
2023-08-17T22:40:30.578Z,75845.94
2023-08-17T22:43:03.145Z,75817.69
2023-08-17T22:45:35.622Z,75809.63
2023-08-17T22:48:08.168Z,75858.06
2023-08-17T22:50:41.355Z,75815.69
2023-08-17T22:53:14.050Z,75817.69
2023-08-17T22:55:46.584Z,75833.84
2023-08-17T22:58:19.273Z,75821.72
2023-08-17T23:00:51.752Z,75821.72
2023-08-17T23:03:24.418Z,75827.78
2023-08-17T23:05:57.025Z,75825.75
2023-08-17T23:08:30.239Z,75819.72
2023-08-17T23:11:03.410Z,75819.72
2023-08-17T23:13:36.069Z,75823.75
2023-08-17T23:16:08.600Z,75825.75
2023-08-17T23:18:41.118Z,75849.97
2023-08-17T23:21:13.710Z,75833.84
2023-08-17T23:23:46.189Z,75843.94
2023-08-17T23:26:18.724Z,75829.81
2023-08-17T23:28:51.404Z,75860.06
2023-08-17T23:31:23.925Z,75866.13
2023-08-17T23:33:56.518Z,75866.13
2023-08-17T23:36:29.164Z,75847.97
2023-08-17T23:39:01.674Z,75825.75
2023-08-17T23:41:34.345Z,75854.03
2023-08-17T23:44:16.064Z,75862.09
2023-08-17T23:46:48.909Z,75849.97
2023-08-17T23:49:21.593Z,75852.00
2023-08-17T23:51:54.070Z,75862.09
2023-08-17T23:54:26.647Z,75845.94
2023-08-17T23:56:59.043Z,75854.03
2023-08-17T23:59:31.635Z,75847.97
